createdAt,value
2022-08-05T04:14:49.273Z,100316.16
2022-08-05T04:17:56.189Z,100316.16
2022-08-05T04:21:00.426Z,100322.28
2022-08-05T04:24:08.897Z,100320.06
2022-08-05T04:27:13.582Z,100318.66
2022-08-05T04:30:16.545Z,100314.47
2022-08-05T04:33:36.394Z,100316.00
2022-08-05T04:36:46.214Z,100317.88
2022-08-05T04:39:53.137Z,100319.53
2022-08-05T04:42:58.563Z,100313.47
2022-08-05T04:46:01.258Z,100325.97
2022-08-05T04:49:04.364Z,100323.59
2022-08-05T04:52:07.774Z,100320.72
2022-08-05T04:55:14.195Z,100322.16
2022-08-05T04:58:21.614Z,100323.12
2022-08-05T05:02:05.812Z,100328.94
2022-08-05T05:04:49.932Z,100322.41
2022-08-05T05:11:53.281Z,100323.56
2022-08-05T05:14:56.330Z,100324.66
2022-08-05T05:17:58.992Z,100315.94
2022-08-05T05:21:03.909Z,100319.63
2022-08-05T05:24:08.910Z,100315.81
2022-08-05T05:27:12.073Z,100319.81
2022-08-05T05:30:30.790Z,100317.59
2022-08-05T05:33:58.570Z,100318.84
2022-08-05T05:36:57.200Z,100309.09
2022-08-05T05:40:00.127Z,100306.16
2022-08-05T05:43:05.683Z,100306.09
2022-08-05T05:46:17.709Z,100303.69
2022-08-05T05:49:22.677Z,100310.28
2022-08-05T05:52:28.527Z,100312.72
2022-08-05T05:55:52.045Z,100310.12
2022-08-05T05:59:18.960Z,100304.53
2022-08-05T06:02:32.447Z,100302.22
2022-08-05T06:05:40.403Z,100302.00
2022-08-05T10:58:36.006Z,100158.28
2022-08-05T13:21:15.744Z,100057.53
2022-08-05T13:24:36.306Z,100049.75
2022-08-05T14:28:59.147Z,99988.09
2022-08-05T14:32:17.158Z,99986.97
2022-08-05T14:35:37.477Z,99987.41
2022-08-05T14:39:23.448Z,99983.63
2022-08-05T14:42:28.161Z,99989.47
2022-08-05T14:45:31.633Z,99980.94
2022-08-05T14:48:34.675Z,99981.88
2022-08-05T14:51:42.737Z,99986.13
2022-08-05T14:54:52.951Z,99977.78
2022-08-05T14:57:56.907Z,99975.44
2022-08-05T15:01:00.427Z,99973.28
2022-08-05T15:04:06.876Z,99965.56
2022-08-05T15:07:09.778Z,99961.59
2022-08-05T15:10:12.859Z,99955.06
2022-08-05T15:13:17.500Z,99955.72
